createdAt,value
2022-07-29T00:00:11.828Z,27.25
2022-07-29T00:01:22.998Z,27.37
2022-07-29T00:02:10.878Z,27.37
2022-07-29T00:03:11.809Z,27.31
2022-07-29T00:04:11.849Z,27.38
2022-07-29T00:05:11.425Z,27.41
2022-07-29T00:06:11.204Z,27.40
2022-07-29T00:07:11.065Z,27.44
2022-07-29T00:08:16.008Z,27.29
2022-07-29T00:09:10.836Z,27.45
2022-07-29T00:10:11.397Z,27.39
2022-07-29T00:11:10.952Z,27.76
2022-07-29T00:12:13.274Z,27.66
2022-07-29T00:13:11.314Z,27.48
2022-07-29T00:14:11.084Z,27.65
2022-07-29T00:15:11.102Z,27.68
2022-07-29T00:16:10.983Z,27.55
2022-07-29T00:17:10.582Z,27.68
2022-07-29T00:18:11.051Z,27.69
2022-07-29T00:19:11.592Z,27.60
2022-07-29T00:20:11.339Z,27.55
2022-07-29T00:21:10.619Z,27.45
2022-07-29T00:22:10.780Z,27.63
2022-07-29T00:23:17.487Z,27.63
2022-07-29T00:24:10.801Z,27.76
2022-07-29T00:25:11.373Z,27.77
2022-07-29T00:26:10.645Z,27.74
2022-07-29T00:27:11.086Z,27.62
2022-07-29T00:28:10.823Z,27.87
2022-07-29T00:29:36.679Z,27.88
2022-07-29T00:30:12.164Z,27.88
2022-07-29T00:31:11.361Z,27.91
2022-07-29T00:32:11.000Z,27.81
2022-07-29T00:33:12.708Z,27.98
2022-07-29T00:34:11.328Z,27.82
2022-07-29T00:35:11.202Z,28.01
2022-07-29T00:36:10.791Z,27.84
2022-07-29T00:37:11.689Z,28.11
2022-07-29T00:38:11.540Z,27.87
2022-07-29T00:39:11.215Z,28.16
2022-07-29T00:40:11.089Z,28.19
2022-07-29T00:41:10.847Z,28.19
2022-07-29T00:42:11.490Z,28.12
2022-07-29T00:43:11.274Z,24
2022-07-29T00:44:11.234Z,28.09
2022-07-29T00:45:11.053Z,28.08
2022-07-29T00:46:10.757Z,27.88
2022-07-29T00:47:11.484Z,27.73
2022-07-29T00:48:10.905Z,27.76
2022-07-29T00:49:12.049Z,27.87
2022-07-29T00:50:10.968Z,27.97
2022-07-29T00:51:11.637Z,28
2022-07-29T00:52:11.061Z,28.02
2022-07-29T00:53:10.615Z,28.01
2022-07-29T00:54:11.210Z,27.62
2022-07-29T00:55:12.347Z,27.99
2022-07-29T00:56:10.728Z,27.95
2022-07-29T00:57:11.025Z,27.84
2022-07-29T00:58:10.773Z,27.71
2022-07-29T00:59:11.387Z,27.85
2022-07-29T01:00:11.752Z,27.84
2022-07-29T01:01:11.461Z,27.69
2022-07-29T01:02:11.438Z,27.56
2022-07-29T01:03:11.074Z,27.56
2022-07-29T01:04:10.987Z,27.57
2022-07-29T01:05:11.218Z,27.49
2022-07-29T01:06:10.766Z,27.47
2022-07-29T01:07:11.596Z,27.52
2022-07-29T01:08:11.941Z,27.46
2022-07-29T01:09:11.728Z,27.45
2022-07-29T01:10:11.262Z,27.55
2022-07-29T01:11:10.963Z,27.62
2022-07-29T01:12:11.983Z,27.44
2022-07-29T01:13:12.214Z,27.73
2022-07-29T01:14:10.694Z,27.61
2022-07-29T01:15:11.417Z,27.64
2022-07-29T01:16:11.255Z,27.62
2022-07-29T01:17:11.118Z,27.45
2022-07-29T01:18:10.686Z,27.54
2022-07-29T01:19:11.263Z,27.55
2022-07-29T01:20:10.945Z,27.47
2022-07-29T01:21:11.696Z,27.51
2022-07-29T01:22:11.111Z,27.58
2022-07-29T01:23:10.678Z,27.39
2022-07-29T01:24:11.242Z,27.44
2022-07-29T01:25:11.094Z,27.45
2022-07-29T01:26:11.776Z,27.39
2022-07-29T01:27:12.062Z,27.39
2022-07-29T01:28:13.675Z,27.59
2022-07-29T01:29:11.858Z,27.54
2022-07-29T01:30:13.810Z,27.48
2022-07-29T01:31:24.950Z,27.22
2022-07-29T01:32:20.269Z,27.15
2022-07-29T01:33:11.159Z,27.02
2022-07-29T01:34:10.765Z,26.86
2022-07-29T01:35:11.383Z,26.80
2022-07-29T01:36:10.724Z,27.14
2022-07-29T01:37:11.103Z,27.04
2022-07-29T01:38:10.625Z,27.31
2022-07-29T01:39:11.101Z,27.31
2022-07-29T01:40:10.613Z,26.95
2022-07-29T01:41:11.107Z,27.11
2022-07-29T01:42:10.740Z,27.38
2022-07-29T01:43:11.506Z,27.18
2022-07-29T01:44:12.841Z,27.29
2022-07-29T01:45:11.251Z,27.30
2022-07-29T01:46:11.208Z,27.31
2022-07-29T01:47:11.164Z,27.27
2022-07-29T01:48:11.287Z,27.47
2022-07-29T01:49:11.368Z,27.43
2022-07-29T01:50:11.141Z,27.28
2022-07-29T01:51:10.773Z,27.62
2022-07-29T01:52:11.072Z,27.45
2022-07-29T01:53:10.787Z,27.52
2022-07-29T01:54:11.290Z,27.45
2022-07-29T01:55:11.074Z,27.66
2022-07-29T01:56:10.924Z,27.61
2022-07-29T01:57:11.837Z,27.54
2022-07-29T01:58:11.041Z,27.67
2022-07-29T01:59:10.662Z,27.43
2022-07-29T02:00:11.988Z,27.57
2022-07-29T02:01:10.943Z,27.52
2022-07-29T02:02:11.558Z,27.19
2022-07-29T02:03:11.033Z,27.18
2022-07-29T02:04:10.887Z,27.40
2022-07-29T02:05:11.793Z,27.19
2022-07-29T02:06:11.115Z,27.13
2022-07-29T02:07:10.799Z,27.25
2022-07-29T02:08:11.259Z,27.12
2022-07-29T02:09:12.143Z,26.93
2022-07-29T02:10:11.228Z,27.18
2022-07-29T02:11:10.735Z,27.07
2022-07-29T02:12:11.146Z,27.18
2022-07-29T02:13:10.881Z,27.01
2022-07-29T02:14:11.227Z,27.17
2022-07-29T02:15:14.356Z,27.21
2022-07-29T02:16:11.196Z,27.17
2022-07-29T02:17:10.970Z,26.95
2022-07-29T02:18:11.416Z,26.93
2022-07-29T02:19:11.210Z,27.09
2022-07-29T02:20:10.826Z,26.87
2022-07-29T02:21:19.474Z,26.98
2022-07-29T02:22:11.062Z,26.98
2022-07-29T02:23:11.047Z,27.13
2022-07-29T02:24:10.693Z,26.94
2022-07-29T02:25:17.913Z,27.19
2022-07-29T02:26:11.489Z,27.04
2022-07-29T02:27:10.844Z,27.21
2022-07-29T02:28:11.612Z,26.78
2022-07-29T02:29:11.286Z,26.72
2022-07-29T02:30:11.286Z,27.01
2022-07-29T02:31:11.340Z,26.81
2022-07-29T02:32:11.949Z,26.90
2022-07-29T02:33:10.712Z,26.88
2022-07-29T02:34:11.521Z,26.93
2022-07-29T02:35:11.318Z,27.05
2022-07-29T02:36:11.147Z,27.06
2022-07-29T02:37:10.995Z,26.92
2022-07-29T02:38:10.718Z,26.97
2022-07-29T02:39:14.722Z,27.02
2022-07-29T02:40:11.396Z,26.94
2022-07-29T02:41:11.398Z,26.90
2022-07-29T02:42:10.828Z,26.98
2022-07-29T02:43:11.516Z,26.56
2022-07-29T02:44:10.877Z,26.70
2022-07-29T02:45:11.776Z,26.61
2022-07-29T02:46:32.115Z,26.83
2022-07-29T02:47:10.639Z,26.83
2022-07-29T02:48:11.115Z,26.79
2022-07-29T02:49:10.938Z,26.83
2022-07-29T02:50:10.525Z,26.62
2022-07-29T02:51:12.736Z,26.68
2022-07-29T02:52:10.881Z,26.71
2022-07-29T02:53:11.576Z,26.76
2022-07-29T02:54:10.950Z,26.72
2022-07-29T02:55:11.761Z,26.80
2022-07-29T02:56:11.136Z,26.85
2022-07-29T02:57:11.063Z,27.01
2022-07-29T02:58:10.758Z,26.93
2022-07-29T02:59:11.279Z,27.08
2022-07-29T03:00:11.932Z,27.01
2022-07-29T03:01:11.321Z,27.22
2022-07-29T03:02:11.166Z,27.17
2022-07-29T03:03:11.046Z,27.22
2022-07-29T03:04:10.987Z,27.33
2022-07-29T03:05:13.903Z,27.27
2022-07-29T03:06:28.124Z,22
2022-07-29T03:07:11.067Z,27.39
2022-07-29T03:08:10.804Z,27.46
2022-07-29T03:09:17.120Z,27.37
2022-07-29T03:10:17.475Z,27.39
2022-07-29T03:11:11.103Z,27.53
2022-07-29T03:12:11.032Z,27.68
2022-07-29T03:13:10.705Z,27.63
2022-07-29T03:14:12.735Z,27.51
2022-07-29T03:15:11.934Z,27.29
2022-07-29T03:16:11.790Z,27.15
2022-07-29T03:17:11.261Z,27.41
2022-07-29T03:18:10.811Z,27.38
2022-07-29T03:19:11.513Z,27.56
2022-07-29T03:20:11.082Z,27.63
2022-07-29T03:21:10.961Z,27.55
2022-07-29T03:22:11.655Z,27.44
2022-07-29T03:23:11.647Z,27.51
2022-07-29T03:24:14.845Z,27.70
2022-07-29T03:25:11.322Z,27.69
2022-07-29T03:26:11.368Z,27.97
2022-07-29T03:27:11.028Z,27.98
2022-07-29T03:28:10.647Z,27.83
2022-07-29T03:29:11.213Z,27.68
2022-07-29T03:30:12.468Z,27.72
2022-07-29T03:31:12.546Z,27.37
2022-07-29T03:32:12.495Z,27.26
2022-07-29T03:33:17.589Z,27.31
2022-07-29T03:34:11.369Z,27.13
2022-07-29T03:35:11.173Z,27.29
2022-07-29T03:36:11.154Z,27.22
2022-07-29T03:37:11.057Z,27.45
2022-07-29T03:38:12.774Z,27.76
2022-07-29T03:39:11.663Z,27.69
2022-07-29T03:40:11.629Z,27.54
2022-07-29T03:41:11.491Z,27.64
2022-07-29T03:42:11.361Z,27.51
2022-07-29T03:43:11.233Z,27.57
2022-07-29T03:44:11.179Z,27.82
2022-07-29T03:45:10.938Z,27.76
2022-07-29T03:46:12.212Z,27.63
2022-07-29T03:47:10.740Z,27.53
2022-07-29T03:48:11.280Z,27.69
2022-07-29T03:49:10.935Z,27.59
2022-07-29T03:50:14.284Z,27.64
2022-07-29T03:51:11.026Z,27.70
2022-07-29T03:52:10.707Z,27.70
2022-07-29T03:53:11.542Z,27.81
2022-07-29T03:54:14.184Z,28.08
2022-07-29T03:55:11.196Z,27.72
2022-07-29T03:56:10.899Z,27.82
2022-07-29T03:57:11.610Z,27.72
2022-07-29T03:58:11.093Z,27.80
2022-07-29T03:59:10.625Z,27.79
2022-07-29T04:00:11.990Z,27.20
2022-07-29T04:01:11.198Z,27.77
2022-07-29T04:02:11.109Z,27.56
2022-07-29T04:03:15.739Z,27.82
2022-07-29T04:04:10.560Z,27.86
2022-07-29T04:05:11.751Z,27.76
2022-07-29T04:06:11.286Z,27.79
2022-07-29T04:07:11.186Z,27.98
2022-07-29T04:08:11.263Z,27.95
2022-07-29T04:09:13.464Z,27.97
2022-07-29T04:10:10.943Z,27.87
2022-07-29T04:11:11.813Z,27.87
2022-07-29T04:12:11.179Z,28.05
2022-07-29T04:13:11.305Z,28.09
2022-07-29T04:14:11.170Z,27.95
2022-07-29T04:15:11.466Z,28.09
2022-07-29T04:16:11.368Z,28.10
2022-07-29T04:17:11.059Z,28.35
2022-07-29T04:18:10.740Z,28.27
2022-07-29T04:19:11.268Z,28.46
2022-07-29T04:20:11.447Z,28.34
2022-07-29T04:21:11.011Z,28.58
2022-07-29T04:22:10.771Z,28.51
2022-07-29T04:23:11.462Z,28.54
2022-07-29T04:24:11.273Z,28.51
2022-07-29T04:25:11.285Z,28.23
2022-07-29T04:26:12.228Z,28.20
2022-07-29T04:27:11.049Z,28.43
2022-07-29T04:28:10.848Z,28.43
2022-07-29T04:29:11.446Z,28.37
2022-07-29T04:30:11.194Z,28.22
2022-07-29T04:31:11.182Z,28.29
2022-07-29T04:32:10.983Z,28.10
2022-07-29T04:33:10.697Z,28.37
2022-07-29T04:34:11.058Z,28.34
2022-07-29T04:35:11.444Z,28.39
2022-07-29T04:36:32.273Z,28.40
2022-07-29T04:37:11.146Z,28.40
2022-07-29T04:38:19.216Z,28.37
2022-07-29T04:39:10.873Z,28.40
2022-07-29T04:40:11.752Z,28.60
2022-07-29T04:41:11.304Z,28.14
2022-07-29T04:42:12.037Z,28.28
2022-07-29T04:43:12.604Z,28.49
2022-07-29T04:44:12.271Z,28.29
2022-07-29T04:45:11.483Z,28.37
2022-07-29T04:46:11.337Z,28.48
2022-07-29T04:47:11.264Z,28.44
2022-07-29T04:48:11.283Z,28.45
2022-07-29T04:49:10.975Z,28.28
2022-07-29T04:50:11.319Z,28.51
2022-07-29T04:51:11.424Z,28.45
2022-07-29T04:52:11.127Z,28.39
2022-07-29T04:53:10.988Z,28.30
2022-07-29T04:54:10.748Z,28.57
2022-07-29T04:55:11.739Z,28.52
2022-07-29T04:56:11.565Z,28.31
2022-07-29T04:57:11.210Z,28.48
2022-07-29T04:58:11.241Z,28.48
2022-07-29T04:59:10.920Z,28.63
2022-07-29T05:00:12.063Z,28.05
2022-07-29T05:01:11.662Z,28.55
2022-07-29T05:02:11.520Z,28.61
2022-07-29T05:03:11.622Z,28.51
2022-07-29T05:04:11.345Z,28.65
2022-07-29T05:05:11.808Z,28.67
2022-07-29T05:06:11.006Z,28.57
2022-07-29T05:07:10.897Z,28.64
2022-07-29T05:08:11.845Z,28.63
2022-07-29T05:09:11.628Z,28.31
2022-07-29T05:10:11.566Z,28.31
2022-07-29T05:11:21.345Z,28.08
2022-07-29T05:12:11.320Z,28.13
2022-07-29T05:13:11.255Z,27.95
2022-07-29T05:14:11.426Z,28.20
2022-07-29T05:15:11.852Z,28.10
2022-07-29T05:16:11.760Z,27.94
2022-07-29T05:17:11.693Z,28.16
2022-07-29T05:18:11.206Z,28.11
2022-07-29T05:19:17.853Z,28.17
2022-07-29T05:20:11.879Z,28.29
2022-07-29T05:21:11.395Z,27.71
2022-07-29T05:22:11.062Z,28.20
2022-07-29T05:23:10.853Z,28.27
2022-07-29T05:24:11.574Z,28.09
2022-07-29T05:25:12.966Z,27.88
2022-07-29T05:26:11.373Z,27.70
2022-07-29T05:27:11.424Z,27.88
2022-07-29T05:28:11.215Z,27.78
2022-07-29T05:29:47.347Z,27.88
2022-07-29T05:30:11.590Z,27.88
2022-07-29T05:31:11.334Z,27.96
2022-07-29T05:32:11.461Z,27.96
2022-07-29T05:33:36.199Z,28.10
2022-07-29T05:34:11.498Z,27.84
2022-07-29T05:35:11.513Z,27.88
2022-07-29T05:36:11.962Z,28.22
2022-07-29T05:37:11.508Z,28.23
2022-07-29T05:38:11.623Z,28.12
2022-07-29T05:39:11.380Z,28.13
2022-07-29T05:40:11.376Z,28.18
2022-07-29T05:41:11.249Z,28.06
2022-07-29T05:42:11.416Z,28.06
2022-07-29T05:43:11.622Z,27.89
2022-07-29T05:44:11.370Z,28.14
2022-07-29T05:45:11.606Z,28.04
2022-07-29T05:46:12.698Z,27.89
2022-07-29T05:47:11.467Z,28.10
2022-07-29T05:48:12.022Z,28.03
2022-07-29T05:49:11.716Z,28.01
2022-07-29T05:50:11.683Z,28.14
2022-07-29T05:51:11.555Z,28.19
2022-07-29T05:52:11.523Z,28.04
2022-07-29T05:53:23.958Z,28.21
2022-07-29T05:54:11.838Z,28.21
2022-07-29T05:55:11.939Z,28.26
2022-07-29T05:56:11.465Z,28.19
2022-07-29T05:57:11.454Z,28.12
2022-07-29T05:58:11.144Z,27.98
2022-07-29T05:59:21.866Z,28.22
2022-07-29T06:00:13.443Z,28.22
2022-07-29T06:01:47.596Z,28.28
2022-07-29T06:02:11.319Z,28.28
2022-07-29T06:03:11.264Z,28.41
2022-07-29T06:04:11.053Z,28.43
2022-07-29T06:05:20.060Z,28.5
2022-07-29T06:06:11.041Z,28.5
2022-07-29T06:07:10.758Z,28.45
2022-07-29T06:08:11.474Z,28.60
2022-07-29T06:09:17.586Z,28.52
2022-07-29T06:10:11.384Z,28.19
2022-07-29T06:11:11.273Z,28.70
2022-07-29T06:12:11.187Z,28.54
2022-07-29T06:13:11.084Z,28.55
2022-07-29T06:14:10.726Z,28.53
2022-07-29T06:15:11.721Z,28.64
2022-07-29T06:16:11.876Z,28.62
2022-07-29T06:17:11.696Z,28.51
2022-07-29T06:18:11.880Z,28.69
2022-07-29T06:19:13.256Z,28.62
2022-07-29T06:20:12.385Z,28.69
2022-07-29T06:21:11.265Z,29.02
2022-07-29T06:22:11.097Z,28.69
2022-07-29T06:23:11.075Z,28.98
2022-07-29T06:24:10.983Z,28.94
2022-07-29T06:25:11.460Z,29.22
2022-07-29T06:26:11.338Z,29.04
2022-07-29T06:27:11.241Z,29.10
2022-07-29T06:28:11.084Z,29.13
2022-07-29T06:29:10.973Z,29.57
2022-07-29T06:30:11.781Z,29.56
2022-07-29T06:31:14.129Z,29.79
2022-07-29T06:32:10.857Z,29.84
2022-07-29T06:33:11.704Z,30.11
2022-07-29T06:34:11.810Z,30.18
2022-07-29T06:35:53.142Z,30.27
2022-07-29T06:36:11.717Z,30.27
2022-07-29T06:37:19.062Z,30.27
2022-07-29T06:38:42.052Z,30.05
2022-07-29T06:39:12.371Z,30.05
2022-07-29T06:40:11.367Z,29.70
2022-07-29T06:41:11.457Z,30.10
2022-07-29T06:42:11.198Z,29.84
2022-07-29T06:43:10.810Z,30.15
2022-07-29T06:44:11.377Z,30.09
2022-07-29T06:45:13.059Z,30.02
2022-07-29T06:46:11.107Z,29.81
2022-07-29T06:47:11.024Z,29.77
2022-07-29T06:48:11.062Z,29.84
2022-07-29T06:49:11.137Z,29.80
2022-07-29T06:50:11.443Z,29.92
2022-07-29T06:51:11.550Z,29.91
2022-07-29T06:52:11.588Z,29.67
2022-07-29T06:53:11.505Z,29.81
2022-07-29T06:54:11.346Z,29.89
2022-07-29T06:55:11.152Z,29.75
2022-07-29T06:56:10.589Z,29.84
2022-07-29T06:57:11.198Z,29.80
2022-07-29T06:58:11.037Z,29.67
2022-07-29T06:59:11.341Z,29.63
2022-07-29T07:00:12.226Z,29.60
2022-07-29T07:01:11.239Z,29.58
2022-07-29T07:02:16.921Z,29.34
2022-07-29T07:03:10.952Z,29.37
2022-07-29T07:04:17.586Z,29.38
2022-07-29T07:05:11.809Z,29.43
2022-07-29T07:06:18.499Z,29.45
2022-07-29T07:07:11.375Z,29.41
2022-07-29T07:08:11.108Z,29.32
2022-07-29T07:09:10.833Z,29.10
2022-07-29T07:10:11.690Z,29.21
2022-07-29T07:11:11.090Z,29.24
2022-07-29T07:12:11.051Z,29.15
2022-07-29T07:13:11.046Z,29.16
2022-07-29T07:14:11.006Z,28.93
2022-07-29T07:15:11.292Z,29.04
2022-07-29T07:16:11.007Z,29.09
2022-07-29T07:17:11.045Z,28.94
2022-07-29T07:18:11.094Z,29.04
2022-07-29T07:19:10.832Z,29.20
2022-07-29T07:20:13.277Z,29.27
2022-07-29T07:21:11.520Z,29.09
2022-07-29T07:22:11.588Z,29.01
2022-07-29T07:23:11.474Z,29.34
2022-07-29T07:24:11.458Z,29.48
2022-07-29T07:25:11.591Z,29.54
2022-07-29T07:26:12.151Z,29.59
2022-07-29T07:27:11.053Z,29.36
2022-07-29T07:28:11.056Z,29.53
2022-07-29T07:29:10.873Z,29.34
2022-07-29T07:30:12.003Z,29.65
2022-07-29T07:31:11.353Z,29.78
2022-07-29T07:32:11.448Z,29.90
2022-07-29T07:33:11.409Z,29.70
2022-07-29T07:34:11.194Z,29.65
2022-07-29T07:35:11.502Z,29.82
2022-07-29T07:36:11.302Z,29.72
2022-07-29T07:37:11.046Z,29.79
2022-07-29T07:38:10.663Z,30.03
2022-07-29T07:39:11.946Z,29.95
2022-07-29T07:40:12.030Z,29.97
2022-07-29T07:41:11.903Z,30.11
2022-07-29T07:42:11.867Z,25
2022-07-29T07:43:11.439Z,29.80
2022-07-29T07:44:16.256Z,30.03
2022-07-29T07:45:17.882Z,30.07
2022-07-29T07:46:12.872Z,29.80
2022-07-29T07:47:16.200Z,29.99
2022-07-29T07:48:10.853Z,30.02
2022-07-29T07:49:11.766Z,29.95
2022-07-29T07:50:18.086Z,30.13
2022-07-29T07:51:11.756Z,30.17
2022-07-29T07:52:11.615Z,30.31
2022-07-29T07:53:11.492Z,30.45
2022-07-29T07:54:11.429Z,30.07
2022-07-29T07:55:11.464Z,30.41
2022-07-29T07:56:16.494Z,30.37
2022-07-29T07:57:11.388Z,30.5
2022-07-29T07:58:11.067Z,30.67
2022-07-29T07:59:10.961Z,30.71
2022-07-29T08:00:12.270Z,30.56
2022-07-29T08:01:11.610Z,30.71
2022-07-29T08:02:11.812Z,30.67
2022-07-29T08:03:20.981Z,30.98
2022-07-29T08:04:11.122Z,30.98
2022-07-29T08:05:16.496Z,30.88
2022-07-29T08:06:11.359Z,30.76
2022-07-29T08:07:11.345Z,30.81
2022-07-29T08:08:11.043Z,30.78
2022-07-29T08:09:32.751Z,30.81
2022-07-29T08:10:11.534Z,30.81
2022-07-29T08:11:13.534Z,30.84
2022-07-29T08:12:11.330Z,30.62
2022-07-29T08:13:11.372Z,30.73
2022-07-29T08:14:11.430Z,30.94
2022-07-29T08:15:12.146Z,30.98
2022-07-29T08:16:11.287Z,31.03
2022-07-29T08:17:11.139Z,31.06
2022-07-29T08:18:12.382Z,30.86
2022-07-29T08:19:11.428Z,30.81
2022-07-29T08:20:11.483Z,31.32
2022-07-29T08:21:15.057Z,31.21
2022-07-29T08:22:11.342Z,31.30
2022-07-29T08:23:11.189Z,31.34
2022-07-29T08:24:10.954Z,30.95
2022-07-29T08:25:12.085Z,31.32
2022-07-29T08:26:11.644Z,31.22
2022-07-29T08:27:44.594Z,31.18
2022-07-29T08:28:11.494Z,31.18
2022-07-29T08:29:10.953Z,31.43
2022-07-29T08:30:11.620Z,31.27
2022-07-29T08:31:11.508Z,31.47
2022-07-29T08:32:11.491Z,31.28
2022-07-29T08:33:11.431Z,31.43
2022-07-29T08:34:11.299Z,31.95
2022-07-29T08:35:11.227Z,31.88
2022-07-29T08:36:10.988Z,31.98
2022-07-29T08:37:11.244Z,32.28
2022-07-29T08:38:11.037Z,32.08
2022-07-29T08:39:11.237Z,32.15
2022-07-29T08:40:11.393Z,32.09
2022-07-29T08:41:11.066Z,31.97
2022-07-29T08:42:10.993Z,32.00
2022-07-29T08:43:11.080Z,32.31
2022-07-29T08:44:11.157Z,32.34
2022-07-29T08:45:11.272Z,32.25
2022-07-29T08:46:11.102Z,32.46
2022-07-29T08:47:11.197Z,32.39
2022-07-29T08:48:14.060Z,31.94
2022-07-29T08:49:10.763Z,32.40
2022-07-29T08:50:11.801Z,32.34
2022-07-29T08:51:12.165Z,32.48
2022-07-29T08:52:11.193Z,31.87
2022-07-29T08:53:11.173Z,32.06
2022-07-29T08:54:11.232Z,32.04
2022-07-29T08:55:11.250Z,31.95
2022-07-29T08:56:11.209Z,32.02
2022-07-29T08:57:13.136Z,31.98
2022-07-29T08:58:11.386Z,31.87
2022-07-29T08:59:11.668Z,31.94
2022-07-29T09:00:15.878Z,32.18
2022-07-29T09:01:16.293Z,32.04
2022-07-29T09:02:13.212Z,31.94
2022-07-29T09:03:11.340Z,31.95
2022-07-29T09:04:11.310Z,31.76
2022-07-29T09:05:12.420Z,31.92
2022-07-29T09:06:11.057Z,31.90
2022-07-29T09:07:11.416Z,26
2022-07-29T09:08:11.094Z,31.97
2022-07-29T09:09:11.235Z,32.16
2022-07-29T09:10:11.516Z,32.09
2022-07-29T09:11:11.596Z,32.27
2022-07-29T09:12:11.756Z,32.15
2022-07-29T09:13:11.671Z,32.27
2022-07-29T09:14:11.395Z,32.37
2022-07-29T09:15:12.074Z,32.29
2022-07-29T09:16:26.726Z,32.46
2022-07-29T09:17:11.710Z,32.38
2022-07-29T09:18:30.381Z,32.59
2022-07-29T09:19:11.803Z,32.59
2022-07-29T09:20:11.652Z,32.69
2022-07-29T09:21:11.855Z,32.59
2022-07-29T09:22:11.573Z,32.47
2022-07-29T09:23:11.756Z,32.59
2022-07-29T09:24:11.673Z,32.90
2022-07-29T09:25:11.714Z,33.13
2022-07-29T09:26:11.857Z,33.00
2022-07-29T09:27:17.239Z,33.22
2022-07-29T09:28:11.267Z,33.18
2022-07-29T09:29:11.028Z,33.22
2022-07-29T09:30:11.380Z,33.06
2022-07-29T09:31:11.546Z,33.02
2022-07-29T09:32:11.761Z,33.13
2022-07-29T09:33:11.306Z,33.32
2022-07-29T09:34:10.996Z,33.06
2022-07-29T09:35:11.454Z,33.25
2022-07-29T09:36:11.101Z,33.45
2022-07-29T09:37:11.209Z,33.36
2022-07-29T09:38:11.000Z,33.81
2022-07-29T09:39:11.122Z,33.61
2022-07-29T09:40:15.641Z,33.75
2022-07-29T09:41:11.912Z,33.56
2022-07-29T09:42:11.549Z,34.18
2022-07-29T09:43:11.374Z,34.34
2022-07-29T09:44:11.416Z,34.34
2022-07-29T09:45:11.920Z,34.16
2022-07-29T09:46:16.195Z,34.34
2022-07-29T09:47:11.189Z,34.47
2022-07-29T09:48:11.438Z,34.55
2022-07-29T09:49:12.800Z,35.00
2022-07-29T09:50:11.977Z,34.50
2022-07-29T09:51:12.081Z,35.28
2022-07-29T09:52:11.643Z,35.45
2022-07-29T09:53:11.600Z,35.45
2022-07-29T09:54:11.465Z,36.13
2022-07-29T09:55:13.845Z,37.36
2022-07-29T09:56:11.508Z,37.50
2022-07-29T09:57:11.569Z,36.65
2022-07-29T09:58:11.738Z,34.70
2022-07-29T09:59:11.471Z,28
2022-07-29T10:00:13.553Z,34.81
2022-07-29T10:01:11.990Z,35.16
2022-07-29T10:02:11.468Z,34.93
2022-07-29T10:03:12.304Z,34.65
2022-07-29T10:04:11.309Z,34.25
2022-07-29T10:05:11.546Z,34.36
2022-07-29T10:06:11.263Z,34.38
2022-07-29T10:07:10.915Z,34.33
2022-07-29T10:08:11.835Z,34.53
2022-07-29T10:09:11.941Z,33.63
2022-07-29T10:10:11.796Z,33.93
2022-07-29T10:11:11.580Z,34.06
2022-07-29T10:12:11.312Z,34.04
2022-07-29T10:13:18.943Z,33.61
2022-07-29T10:14:12.995Z,33.72
2022-07-29T10:15:11.649Z,33.75
2022-07-29T10:16:11.569Z,33.94
2022-07-29T10:17:11.663Z,33.66
2022-07-29T10:18:11.216Z,34.09
2022-07-29T10:19:11.161Z,34.02
2022-07-29T10:20:16.546Z,34.22
2022-07-29T10:21:11.446Z,34.02
2022-07-29T10:22:11.649Z,34.06
2022-07-29T10:23:11.335Z,34.22
2022-07-29T10:24:18.920Z,34.20
2022-07-29T10:25:12.441Z,28
2022-07-29T10:26:11.265Z,34.20
2022-07-29T10:27:11.186Z,33.95
2022-07-29T10:28:15.784Z,34.56
2022-07-29T10:29:11.253Z,34.62
2022-07-29T10:30:11.397Z,34.54
2022-07-29T10:31:11.428Z,34.49
2022-07-29T10:32:12.954Z,34.69
2022-07-29T10:33:12.197Z,34.52
2022-07-29T10:34:11.020Z,34.77
2022-07-29T10:35:11.602Z,34.75
2022-07-29T10:36:13.007Z,34.82
2022-07-29T10:37:13.892Z,34.87
2022-07-29T10:38:16.421Z,34.97
2022-07-29T10:39:11.524Z,35.14
2022-07-29T10:40:11.920Z,34.91
2022-07-29T10:41:12.412Z,35.22
2022-07-29T10:42:12.712Z,35.37
2022-07-29T10:43:12.350Z,35.20
2022-07-29T10:44:17.122Z,35.31
2022-07-29T10:45:12.234Z,35.18
2022-07-29T10:46:11.727Z,35.21
2022-07-29T10:47:11.400Z,35.15
2022-07-29T10:48:12.024Z,35.34
2022-07-29T10:49:15.638Z,35.35
2022-07-29T10:50:16.921Z,35.56
2022-07-29T10:51:12.534Z,35.53
2022-07-29T10:52:11.962Z,35.48
2022-07-29T10:53:14.345Z,35.13
2022-07-29T10:54:12.661Z,35.24
2022-07-29T10:55:12.550Z,35.00
2022-07-29T10:56:17.340Z,35.15
2022-07-29T10:57:11.563Z,35.34
2022-07-29T10:58:11.733Z,34.41
2022-07-29T10:59:12.426Z,34.54
2022-07-29T11:00:12.668Z,34.86
2022-07-29T11:01:12.112Z,35.02
2022-07-29T11:02:44.851Z,34.90
2022-07-29T11:03:14.606Z,34.90
2022-07-29T11:04:11.773Z,35.31
2022-07-29T11:05:12.050Z,35.22
2022-07-29T11:06:12.498Z,35.56
2022-07-29T11:07:10.996Z,35.79
2022-07-29T11:08:16.211Z,35.65
2022-07-29T11:09:12.947Z,36.14
2022-07-29T11:10:11.395Z,36.05
2022-07-29T11:11:12.534Z,35.84
2022-07-29T11:12:12.751Z,35.56
2022-07-29T11:13:11.139Z,35.77
2022-07-29T11:14:14.165Z,35.92
2022-07-29T11:15:11.873Z,35.68
2022-07-29T11:16:12.341Z,35.38
2022-07-29T11:17:14.003Z,35.36
2022-07-29T11:18:14.942Z,35.45
2022-07-29T11:19:11.499Z,35.36
2022-07-29T11:20:15.720Z,35.36
2022-07-29T11:21:12.226Z,20
2022-07-29T11:22:16.512Z,35.29
2022-07-29T11:23:11.787Z,35.66
2022-07-29T11:24:14.695Z,35.47
2022-07-29T11:25:11.445Z,35.77
2022-07-29T11:27:13.571Z,35.61
2022-07-29T11:28:11.137Z,35.52
2022-07-29T11:29:11.007Z,36.54
2022-07-29T11:30:11.850Z,37.18
2022-07-29T11:31:11.542Z,37.31
2022-07-29T11:32:15.872Z,36.25
2022-07-29T11:33:11.175Z,36.09
2022-07-29T11:34:11.761Z,35.50
2022-07-29T11:35:36.803Z,35.45
2022-07-29T11:36:11.412Z,35.45
2022-07-29T11:37:12.457Z,35.35
2022-07-29T11:38:11.275Z,35.70
2022-07-29T11:39:15.070Z,36.81
2022-07-29T11:40:12.482Z,35.77
2022-07-29T11:41:12.160Z,36.22
2022-07-29T11:42:17.483Z,36.66
2022-07-29T11:43:11.904Z,36.29
2022-07-29T11:44:12.613Z,36.24
2022-07-29T11:45:48.853Z,35.91
2022-07-29T11:46:14.165Z,35.91
2022-07-29T11:47:11.536Z,36.04
2022-07-29T11:48:35.837Z,35.72
2022-07-29T11:49:13.928Z,35.72
2022-07-29T11:50:14.102Z,35.68
2022-07-29T11:51:14.029Z,36.11
2022-07-29T11:52:14.590Z,36.11
2022-07-29T11:53:12.429Z,36.04
2022-07-29T11:55:14.338Z,35.63
2022-07-29T11:56:11.790Z,35.75
2022-07-29T11:57:11.125Z,34.79
2022-07-29T11:58:11.497Z,35.36
2022-07-29T11:59:15.302Z,35.47
2022-07-29T12:00:18.663Z,35.16
2022-07-29T12:01:12.572Z,35.13
2022-07-29T12:03:11.269Z,35.5
2022-07-29T12:04:11.551Z,35.73
2022-07-29T12:05:16.328Z,35.81
2022-07-29T12:06:11.934Z,35.72
2022-07-29T12:07:11.158Z,35.81
2022-07-29T12:07:15.596Z,35.81
2022-07-29T12:08:16.438Z,36.28
2022-07-29T12:09:14.886Z,35.77
2022-07-29T12:10:30.034Z,35.34
2022-07-29T12:11:11.958Z,35.34
2022-07-29T12:12:12.121Z,35.02
2022-07-29T12:13:13.139Z,35.29
2022-07-29T12:14:11.317Z,35.06
2022-07-29T12:15:12.183Z,35.15
2022-07-29T12:16:14.593Z,35.11
2022-07-29T12:17:11.836Z,34.90
2022-07-29T12:18:11.624Z,34.93
2022-07-29T12:19:12.073Z,35.08
2022-07-29T12:20:12.410Z,34.61
2022-07-29T12:21:12.427Z,34.88
2022-07-29T12:22:11.588Z,34.65
2022-07-29T12:23:12.787Z,34.86
2022-07-29T12:24:30.852Z,34.61
2022-07-29T12:25:36.291Z,34.79
2022-07-29T12:26:21.857Z,34.79
2022-07-29T12:27:12.861Z,34.68
2022-07-29T12:28:14.259Z,34.72
2022-07-29T12:29:15.657Z,34.56
2022-07-29T12:30:12.941Z,34.63
2022-07-29T12:31:12.011Z,34.43
2022-07-29T12:32:19.516Z,34.84
2022-07-29T12:33:11.696Z,34.38
2022-07-29T12:34:11.718Z,34.59
2022-07-29T12:35:11.987Z,34.72
2022-07-29T12:36:39.041Z,34.40
2022-07-29T12:37:11.614Z,34.40
2022-07-29T12:38:30.606Z,34.28
2022-07-29T12:39:11.783Z,34.25
2022-07-29T12:40:39.900Z,33.95
2022-07-29T12:41:11.766Z,33.95
2022-07-29T12:42:19.042Z,34.30
2022-07-29T12:43:10.774Z,34.09
2022-07-29T12:44:12.304Z,33.61
2022-07-29T12:45:11.764Z,33.65
2022-07-29T12:46:11.900Z,33.77
2022-07-29T12:47:11.696Z,33.59
2022-07-29T12:48:12.073Z,33.79
2022-07-29T12:49:11.383Z,33.72
2022-07-29T12:50:11.239Z,33.27
2022-07-29T12:51:11.689Z,33.66
2022-07-29T12:52:11.438Z,33.52
2022-07-29T12:53:11.432Z,33.85
2022-07-29T12:54:11.531Z,33.50
2022-07-29T12:55:11.706Z,33.36